Aérodrome :
LOGIN :

S'inscrire | Disclaimer

   EN    FR    IT 

 










Légende :    VFR   VFR Marginal   IFR   IFR Intensif   IFR Très Intensif
Visi : 
Plafond : 
>= 8 km
>= 3000ft
5 à 8 km
1000 à 3000 ft
1500m à 5 km
500 à 1000 ft
800 à 1500m
200 à 500 ft
< 800m
< 200 ft
Symboles :   Orages  Brouillard  Fortes neiges  Fortes précipitations  Vent > 20 kt
SIGMETs :   Divers  Orages  Givrage  Turbulence  Onde Orograph.  Cendres Volcan.







- Altitude de l'aérodrome : 16 ft
- Code IATA : EAS


LESO - San Sebastian Fuenterrabia

DERNIER METAR :
  • 211330Z 21005KT 140V260 CAVOK 22/04 Q1026

METARs EXPIRÉS :
  • 211300Z 23006KT 170V270 CAVOK 21/06 Q1026
  • 211230Z 14006KT 110V200 CAVOK 21/07 Q1026
  • 211200Z 13004KT 080V170 CAVOK 20/06 Q1027
  • 211130Z 14007KT 110V170 CAVOK 19/06 Q1027
  • 211100Z 14010KT 110V170 CAVOK 18/06 Q1027
  • 211030Z 12010KT CAVOK 17/06 Q1027

TAF TAF LESO
Valide du 21 à 12h jusqu'au 22 à 12h UTC


211100Z 2112/2212 15009KT CAVOK TX21/2115Z TN06/2206Z
Pas de NOTAMs connus pour ce terrain.



MET'MAP, la Météo Aéronautique d'un coup d'oeil ! - Copyright ORBIFLY Décembre 2007 - Disclaimer

ORBIFLY MET'MAP TEAM :

Programmation & Développement : Alexandra Zaïnal
Conception & Développement : Baudouin d'Aumeries
Co-Programmation & Développement : Marc-Olivier Méhu
Soutien technique & logistique : Manuel Goepfert

Contact : metmap@orbifly.com




SOURCES & CREDITS :

   NOAA